sensor_id;sensor_type;location;lat;lon;timestamp;temperature;humidity
30694;DHT22;17446;48.022;-1.740;2022-09-03T00:00:35;20.80;99.90
30694;DHT22;17446;48.022;-1.740;2022-09-03T00:05:50;20.80;99.90
30694;DHT22;17446;48.022;-1.740;2022-09-03T00:08:38;20.80;99.90
30694;DHT22;17446;48.022;-1.740;2022-09-03T00:13:43;20.80;99.90
30694;DHT22;17446;48.022;-1.740;2022-09-03T00:16:10;20.70;99.90
30694;DHT22;17446;48.022;-1.740;2022-09-03T00:18:44;20.80;99.90
30694;DHT22;17446;48.022;-1.740;2022-09-03T00:21:11;20.80;99.90
30694;DHT22;17446;48.022;-1.740;2022-09-03T00:23:39;20.80;99.90
30694;DHT22;17446;48.022;-1.740;2022-09-03T00:28:39;20.80;99.90
30694;DHT22;17446;48.022;-1.740;2022-09-03T00:31:10;20.80;99.90
30694;DHT22;17446;48.022;-1.740;2022-09-03T00:33:39;20.80;99.90
30694;DHT22;17446;48.022;-1.740;2022-09-03T00:36:09;20.80;99.90
30694;DHT22;17446;48.022;-1.740;2022-09-03T00:38:37;20.70;99.90
30694;DHT22;17446;48.022;-1.740;2022-09-03T00:41:05;20.70;99.90
30694;DHT22;17446;48.022;-1.740;2022-09-03T00:46:25;20.70;99.90
30694;DHT22;17446;48.022;-1.740;2022-09-03T00:51:28;20.70;99.90
30694;DHT22;17446;48.022;-1.740;2022-09-03T01:01:29;20.60;99.90
30694;DHT22;17446;48.022;-1.740;2022-09-03T01:06:55;20.60;99.90
30694;DHT22;17446;48.022;-1.740;2022-09-03T01:09:33;20.60;99.90
30694;DHT22;17446;48.022;-1.740;2022-09-03T01:12:07;20.60;99.90
30694;DHT22;17446;48.022;-1.740;2022-09-03T01:19:57;20.70;99.90
30694;DHT22;17446;48.022;-1.740;2022-09-03T01:30:14;20.60;99.90
30694;DHT22;17446;48.022;-1.740;2022-09-03T01:35:20;20.60;99.90
30694;DHT22;17446;48.022;-1.740;2022-09-03T01:40:17;20.60;99.90
30694;DHT22;17446;48.022;-1.740;2022-09-03T01:50:49;20.60;99.90
30694;DHT22;17446;48.022;-1.740;2022-09-03T01:56:01;20.60;99.90
30694;DHT22;17446;48.022;-1.740;2022-09-03T01:58:40;20.60;99.90
30694;DHT22;17446;48.022;-1.740;2022-09-03T02:01:29;20.60;99.90
30694;DHT22;17446;48.022;-1.740;2022-09-03T02:03:53;20.60;99.90
30694;DHT22;17446;48.022;-1.740;2022-09-03T02:06:23;20.60;99.90
30694;DHT22;17446;48.022;-1.740;2022-09-03T02:08:49;20.50;99.90
30694;DHT22;17446;48.022;-1.740;2022-09-03T02:11:14;20.50;99.90
30694;DHT22;17446;48.022;-1.740;2022-09-03T02:13:41;20.50;99.90
30694;DHT22;17446;48.022;-1.740;2022-09-03T02:16:17;20.50;99.90
30694;DHT22;17446;48.022;-1.740;2022-09-03T02:18:45;20.50;99.90
30694;DHT22;17446;48.022;-1.740;2022-09-03T02:21:12;20.50;99.90
30694;DHT22;17446;48.022;-1.740;2022-09-03T02:23:39;20.50;99.90
30694;DHT22;17446;48.022;-1.740;2022-09-03T02:26:05;20.50;99.90
30694;DHT22;17446;48.022;-1.740;2022-09-03T02:28:31;20.50;99.90
30694;DHT22;17446;48.022;-1.740;2022-09-03T02:30:56;20.50;99.90
30694;DHT22;17446;48.022;-1.740;2022-09-03T02:33:22;20.40;99.90
30694;DHT22;17446;48.022;-1.740;2022-09-03T02:35:48;20.40;99.90
30694;DHT22;17446;48.022;-1.740;2022-09-03T02:38:18;20.50;99.90
30694;DHT22;17446;48.022;-1.740;2022-09-03T02:40:44;20.40;99.90
30694;DHT22;17446;48.022;-1.740;2022-09-03T02:43:16;20.40;99.90
30694;DHT22;17446;48.022;-1.740;2022-09-03T02:45:46;20.50;99.90
30694;DHT22;17446;48.022;-1.740;2022-09-03T02:48:13;20.50;99.90
30694;DHT22;17446;48.022;-1.740;2022-09-03T02:50:41;20.50;99.90
30694;DHT22;17446;48.022;-1.740;2022-09-03T02:53:07;20.50;99.90
30694;DHT22;17446;48.022;-1.740;2022-09-03T02:55:33;20.50;99.90
30694;DHT22;17446;48.022;-1.740;2022-09-03T02:57:58;20.50;99.90
30694;DHT22;17446;48.022;-1.740;2022-09-03T03:00:24;20.50;99.90
30694;DHT22;17446;48.022;-1.740;2022-09-03T03:02:50;20.50;99.90
30694;DHT22;17446;48.022;-1.740;2022-09-03T03:05:38;20.50;99.90
30694;DHT22;17446;48.022;-1.740;2022-09-03T03:08:05;20.50;99.90
30694;DHT22;17446;48.022;-1.740;2022-09-03T03:10:31;20.50;99.90
30694;DHT22;17446;48.022;-1.740;2022-09-03T03:12:56;20.50;99.90
30694;DHT22;17446;48.022;-1.740;2022-09-03T03:15:22;20.40;99.90
30694;DHT22;17446;48.022;-1.740;2022-09-03T03:17:47;20.50;99.90
30694;DHT22;17446;48.022;-1.740;2022-09-03T03:20:13;20.50;99.90
30694;DHT22;17446;48.022;-1.740;2022-09-03T03:22:38;20.50;99.90
30694;DHT22;17446;48.022;-1.740;2022-09-03T03:25:04;20.50;99.90
30694;DHT22;17446;48.022;-1.740;2022-09-03T03:27:30;20.50;99.90
30694;DHT22;17446;48.022;-1.740;2022-09-03T03:29:55;20.50;99.90
30694;DHT22;17446;48.022;-1.740;2022-09-03T03:32:22;20.40;99.90
30694;DHT22;17446;48.022;-1.740;2022-09-03T03:34:47;20.40;99.90
30694;DHT22;17446;48.022;-1.740;2022-09-03T03:37:13;20.40;99.90
30694;DHT22;17446;48.022;-1.740;2022-09-03T03:39:39;20.30;99.90
30694;DHT22;17446;48.022;-1.740;2022-09-03T03:42:04;20.30;99.90
30694;DHT22;17446;48.022;-1.740;2022-09-03T03:44:30;20.30;99.90
30694;DHT22;17446;48.022;-1.740;2022-09-03T03:46:55;20.20;99.90
30694;DHT22;17446;48.022;-1.740;2022-09-03T03:49:21;20.20;99.90
30694;DHT22;17446;48.022;-1.740;2022-09-03T03:51:46;20.20;99.90
30694;DHT22;17446;48.022;-1.740;2022-09-03T03:54:12;20.10;99.90
30694;DHT22;17446;48.022;-1.740;2022-09-03T03:56:37;20.10;99.90
30694;DHT22;17446;48.022;-1.740;2022-09-03T03:59:03;20.10;99.90
30694;DHT22;17446;48.022;-1.740;2022-09-03T04:01:29;20.00;99.90
30694;DHT22;17446;48.022;-1.740;2022-09-03T04:03:55;20.00;99.90
30694;DHT22;17446;48.022;-1.740;2022-09-03T04:06:21;20.00;99.90
30694;DHT22;17446;48.022;-1.740;2022-09-03T04:08:46;19.90;99.90
30694;DHT22;17446;48.022;-1.740;2022-09-03T04:11:13;19.90;99.90
30694;DHT22;17446;48.022;-1.740;2022-09-03T04:13:40;19.90;99.90
30694;DHT22;17446;48.022;-1.740;2022-09-03T04:16:07;19.80;99.90
30694;DHT22;17446;48.022;-1.740;2022-09-03T04:18:34;19.70;99.90
30694;DHT22;17446;48.022;-1.740;2022-09-03T04:21:00;19.60;99.90
30694;DHT22;17446;48.022;-1.740;2022-09-03T04:23:38;19.60;99.90
30694;DHT22;17446;48.022;-1.740;2022-09-03T04:26:04;19.50;99.90
30694;DHT22;17446;48.022;-1.740;2022-09-03T04:28:30;19.50;99.90
30694;DHT22;17446;48.022;-1.740;2022-09-03T04:31:06;19.50;99.90
30694;DHT22;17446;48.022;-1.740;2022-09-03T04:33:32;19.50;99.90
30694;DHT22;17446;48.022;-1.740;2022-09-03T04:36:02;19.50;99.90
30694;DHT22;17446;48.022;-1.740;2022-09-03T04:38:28;19.50;99.90
30694;DHT22;17446;48.022;-1.740;2022-09-03T04:40:54;19.50;99.90
30694;DHT22;17446;48.022;-1.740;2022-09-03T04:43:19;19.50;99.90
30694;DHT22;17446;48.022;-1.740;2022-09-03T04:45:45;19.50;99.90
30694;DHT22;17446;48.022;-1.740;2022-09-03T04:48:10;19.50;99.90
30694;DHT22;17446;48.022;-1.740;2022-09-03T04:50:37;19.50;99.90
30694;DHT22;17446;48.022;-1.740;2022-09-03T04:53:03;19.50;99.90
30694;DHT22;17446;48.022;-1.740;2022-09-03T04:55:33;19.60;99.90
30694;DHT22;17446;48.022;-1.740;2022-09-03T04:57:59;19.60;99.90
30694;DHT22;17446;48.022;-1.740;2022-09-03T05:00:24;19.60;99.90
30694;DHT22;17446;48.022;-1.740;2022-09-03T05:02:50;19.60;99.90
30694;DHT22;17446;48.022;-1.740;2022-09-03T05:05:16;19.60;99.90
30694;DHT22;17446;48.022;-1.740;2022-09-03T05:07:42;19.70;99.90
30694;DHT22;17446;48.022;-1.740;2022-09-03T05:10:08;19.60;99.90
30694;DHT22;17446;48.022;-1.740;2022-09-03T05:12:37;19.60;99.90
30694;DHT22;17446;48.022;-1.740;2022-09-03T05:15:03;19.60;99.90
30694;DHT22;17446;48.022;-1.740;2022-09-03T05:17:29;19.60;99.90
30694;DHT22;17446;48.022;-1.740;2022-09-03T05:19:55;19.60;99.90
30694;DHT22;17446;48.022;-1.740;2022-09-03T05:22:20;19.60;99.90
30694;DHT22;17446;48.022;-1.740;2022-09-03T05:24:46;19.60;99.90
30694;DHT22;17446;48.022;-1.740;2022-09-03T05:27:13;19.70;99.90
30694;DHT22;17446;48.022;-1.740;2022-09-03T05:29:41;19.70;99.90
30694;DHT22;17446;48.022;-1.740;2022-09-03T05:32:07;19.70;99.90
30694;DHT22;17446;48.022;-1.740;2022-09-03T05:34:32;19.70;99.90
30694;DHT22;17446;48.022;-1.740;2022-09-03T05:36:58;19.80;99.90
30694;DHT22;17446;48.022;-1.740;2022-09-03T05:39:23;19.80;99.90
30694;DHT22;17446;48.022;-1.740;2022-09-03T05:41:49;19.80;99.90
30694;DHT22;17446;48.022;-1.740;2022-09-03T05:44:16;19.90;99.90
30694;DHT22;17446;48.022;-1.740;2022-09-03T05:46:42;19.90;99.90
30694;DHT22;17446;48.022;-1.740;2022-09-03T05:49:07;19.90;99.90
30694;DHT22;17446;48.022;-1.740;2022-09-03T05:51:36;19.90;99.90
30694;DHT22;17446;48.022;-1.740;2022-09-03T05:54:04;19.90;99.90
30694;DHT22;17446;48.022;-1.740;2022-09-03T05:56:30;20.00;99.90
30694;DHT22;17446;48.022;-1.740;2022-09-03T05:58:57;20.00;99.90
30694;DHT22;17446;48.022;-1.740;2022-09-03T06:01:27;20.00;99.90
30694;DHT22;17446;48.022;-1.740;2022-09-03T06:03:54;20.00;99.90
30694;DHT22;17446;48.022;-1.740;2022-09-03T06:06:20;20.00;99.90
30694;DHT22;17446;48.022;-1.740;2022-09-03T06:08:52;20.00;99.90
30694;DHT22;17446;48.022;-1.740;2022-09-03T06:11:19;20.10;99.90
30694;DHT22;17446;48.022;-1.740;2022-09-03T06:13:45;20.00;99.90
30694;DHT22;17446;48.022;-1.740;2022-09-03T06:16:12;20.00;99.90
30694;DHT22;17446;48.022;-1.740;2022-09-03T06:18:37;20.10;99.90
30694;DHT22;17446;48.022;-1.740;2022-09-03T06:21:04;20.10;99.90
30694;DHT22;17446;48.022;-1.740;2022-09-03T06:23:30;20.10;99.90
30694;DHT22;17446;48.022;-1.740;2022-09-03T06:28:34;20.10;99.90
30694;DHT22;17446;48.022;-1.740;2022-09-03T06:31:01;20.10;99.90
30694;DHT22;17446;48.022;-1.740;2022-09-03T06:33:27;20.20;99.90
30694;DHT22;17446;48.022;-1.740;2022-09-03T06:35:55;20.20;99.90
30694;DHT22;17446;48.022;-1.740;2022-09-03T06:38:24;20.30;99.90
30694;DHT22;17446;48.022;-1.740;2022-09-03T06:40:54;20.30;99.90
30694;DHT22;17446;48.022;-1.740;2022-09-03T06:43:20;20.30;99.90
30694;DHT22;17446;48.022;-1.740;2022-09-03T06:48:41;20.30;99.90
30694;DHT22;17446;48.022;-1.740;2022-09-03T06:51:13;20.40;99.90
30694;DHT22;17446;48.022;-1.740;2022-09-03T06:53:40;20.40;99.90
30694;DHT22;17446;48.022;-1.740;2022-09-03T06:56:08;20.40;99.90
30694;DHT22;17446;48.022;-1.740;2022-09-03T06:58:34;20.40;99.90
30694;DHT22;17446;48.022;-1.740;2022-09-03T07:01:35;20.50;99.90
30694;DHT22;17446;48.022;-1.740;2022-09-03T07:03:56;20.60;99.90
30694;DHT22;17446;48.022;-1.740;2022-09-03T07:06:25;20.60;99.90
30694;DHT22;17446;48.022;-1.740;2022-09-03T07:08:54;20.70;99.90
30694;DHT22;17446;48.022;-1.740;2022-09-03T07:11:24;20.90;99.90
30694;DHT22;17446;48.022;-1.740;2022-09-03T07:13:51;21.00;99.90
30694;DHT22;17446;48.022;-1.740;2022-09-03T07:16:18;21.10;99.90
30694;DHT22;17446;48.022;-1.740;2022-09-03T07:18:44;21.10;99.90
30694;DHT22;17446;48.022;-1.740;2022-09-03T07:21:11;21.10;99.90
30694;DHT22;17446;48.022;-1.740;2022-09-03T07:23:37;21.10;99.90
30694;DHT22;17446;48.022;-1.740;2022-09-03T07:26:04;21.10;99.90
30694;DHT22;17446;48.022;-1.740;2022-09-03T07:28:30;21.10;99.90
30694;DHT22;17446;48.022;-1.740;2022-09-03T07:31:12;21.10;99.90
30694;DHT22;17446;48.022;-1.740;2022-09-03T07:33:39;21.10;99.90
30694;DHT22;17446;48.022;-1.740;2022-09-03T07:36:06;21.20;99.90
30694;DHT22;17446;48.022;-1.740;2022-09-03T07:38:32;21.20;99.90
30694;DHT22;17446;48.022;-1.740;2022-09-03T07:40:58;21.20;99.90
30694;DHT22;17446;48.022;-1.740;2022-09-03T07:43:25;21.20;99.90
30694;DHT22;17446;48.022;-1.740;2022-09-03T07:45:51;21.20;99.90
30694;DHT22;17446;48.022;-1.740;2022-09-03T07:48:17;21.20;99.90
30694;DHT22;17446;48.022;-1.740;2022-09-03T07:50:42;21.20;99.90
30694;DHT22;17446;48.022;-1.740;2022-09-03T07:53:09;21.30;99.90
30694;DHT22;17446;48.022;-1.740;2022-09-03T07:55:34;21.40;99.90
30694;DHT22;17446;48.022;-1.740;2022-09-03T07:58:00;21.40;99.90
30694;DHT22;17446;48.022;-1.740;2022-09-03T08:00:26;21.50;99.90
30694;DHT22;17446;48.022;-1.740;2022-09-03T08:02:51;21.60;99.90
30694;DHT22;17446;48.022;-1.740;2022-09-03T08:05:17;21.60;99.90
30694;DHT22;17446;48.022;-1.740;2022-09-03T08:07:45;21.70;99.90
30694;DHT22;17446;48.022;-1.740;2022-09-03T08:10:11;21.80;99.90
30694;DHT22;17446;48.022;-1.740;2022-09-03T08:12:37;21.90;99.90
30694;DHT22;17446;48.022;-1.740;2022-09-03T08:15:03;21.90;99.90
30694;DHT22;17446;48.022;-1.740;2022-09-03T08:17:29;21.90;99.90
30694;DHT22;17446;48.022;-1.740;2022-09-03T08:19:54;22.10;99.90
30694;DHT22;17446;48.022;-1.740;2022-09-03T08:22:21;22.10;99.90
30694;DHT22;17446;48.022;-1.740;2022-09-03T08:24:49;22.10;99.90
30694;DHT22;17446;48.022;-1.740;2022-09-03T08:27:15;22.10;99.90
30694;DHT22;17446;48.022;-1.740;2022-09-03T08:29:40;22.10;99.90
30694;DHT22;17446;48.022;-1.740;2022-09-03T08:32:06;22.10;99.90
30694;DHT22;17446;48.022;-1.740;2022-09-03T08:34:31;22.10;99.90
30694;DHT22;17446;48.022;-1.740;2022-09-03T08:36:57;22.00;99.90
30694;DHT22;17446;48.022;-1.740;2022-09-03T08:39:25;22.10;99.90
30694;DHT22;17446;48.022;-1.740;2022-09-03T08:46:56;22.10;99.90
30694;DHT22;17446;48.022;-1.740;2022-09-03T08:49:27;22.20;99.90
30694;DHT22;17446;48.022;-1.740;2022-09-03T08:51:55;22.30;99.90
30694;DHT22;17446;48.022;-1.740;2022-09-03T08:54:24;22.30;99.90
30694;DHT22;17446;48.022;-1.740;2022-09-03T08:56:52;22.30;99.90
30694;DHT22;17446;48.022;-1.740;2022-09-03T08:59:19;22.30;99.90
30694;DHT22;17446;48.022;-1.740;2022-09-03T09:09:16;22.20;99.90
30694;DHT22;17446;48.022;-1.740;2022-09-03T09:16:42;22.40;99.90
30694;DHT22;17446;48.022;-1.740;2022-09-03T09:21:53;22.70;99.90
30694;DHT22;17446;48.022;-1.740;2022-09-03T09:24:28;22.80;99.90
30694;DHT22;17446;48.022;-1.740;2022-09-03T09:26:58;22.90;99.90
30694;DHT22;17446;48.022;-1.740;2022-09-03T09:29:31;23.00;99.90
30694;DHT22;17446;48.022;-1.740;2022-09-03T09:31:57;23.20;99.90
30694;DHT22;17446;48.022;-1.740;2022-09-03T09:34:23;23.30;99.70
30694;DHT22;17446;48.022;-1.740;2022-09-03T09:36:52;23.50;99.60
30694;DHT22;17446;48.022;-1.740;2022-09-03T09:39:18;23.60;99.80
30694;DHT22;17446;48.022;-1.740;2022-09-03T09:44:30;23.80;99.20
30694;DHT22;17446;48.022;-1.740;2022-09-03T09:49:51;23.90;98.60
30694;DHT22;17446;48.022;-1.740;2022-09-03T09:52:21;23.90;98.80
30694;DHT22;17446;48.022;-1.740;2022-09-03T09:54:50;24.00;98.60
30694;DHT22;17446;48.022;-1.740;2022-09-03T09:57:17;24.00;98.30
30694;DHT22;17446;48.022;-1.740;2022-09-03T09:59:46;24.10;98.50
30694;DHT22;17446;48.022;-1.740;2022-09-03T10:02:13;24.30;98.30
30694;DHT22;17446;48.022;-1.740;2022-09-03T10:04:39;24.40;97.80
30694;DHT22;17446;48.022;-1.740;2022-09-03T10:09:43;24.50;97.20
30694;DHT22;17446;48.022;-1.740;2022-09-03T10:12:13;24.40;96.60
30694;DHT22;17446;48.022;-1.740;2022-09-03T10:17:35;24.40;96.30
30694;DHT22;17446;48.022;-1.740;2022-09-03T10:20:06;24.50;96.70
30694;DHT22;17446;48.022;-1.740;2022-09-03T10:22:55;24.40;96.00
30694;DHT22;17446;48.022;-1.740;2022-09-03T10:25:22;24.50;95.40
30694;DHT22;17446;48.022;-1.740;2022-09-03T10:27:50;24.50;95.90
30694;DHT22;17446;48.022;-1.740;2022-09-03T10:30:18;24.50;95.40
30694;DHT22;17446;48.022;-1.740;2022-09-03T10:32:46;24.40;95.50
30694;DHT22;17446;48.022;-1.740;2022-09-03T10:35:26;24.50;95.80
30694;DHT22;17446;48.022;-1.740;2022-09-03T10:40:37;24.60;95.50
30694;DHT22;17446;48.022;-1.740;2022-09-03T10:45:48;24.60;94.90
30694;DHT22;17446;48.022;-1.740;2022-09-03T10:53:46;24.70;94.00
30694;DHT22;17446;48.022;-1.740;2022-09-03T10:56:16;24.70;93.40
30694;DHT22;17446;48.022;-1.740;2022-09-03T11:03:48;24.90;93.30
30694;DHT22;17446;48.022;-1.740;2022-09-03T11:08:50;24.90;93.10
30694;DHT22;17446;48.022;-1.740;2022-09-03T11:11:22;24.80;92.70
30694;DHT22;17446;48.022;-1.740;2022-09-03T11:13:55;24.80;92.70
30694;DHT22;17446;48.022;-1.740;2022-09-03T11:16:22;24.90;93.20
30694;DHT22;17446;48.022;-1.740;2022-09-03T11:18:54;25.10;92.80
30694;DHT22;17446;48.022;-1.740;2022-09-03T11:21:21;25.20;92.40
30694;DHT22;17446;48.022;-1.740;2022-09-03T11:23:49;25.20;91.00
30694;DHT22;17446;48.022;-1.740;2022-09-03T11:26:17;25.30;90.70
30694;DHT22;17446;48.022;-1.740;2022-09-03T11:31:15;25.20;90.60
30694;DHT22;17446;48.022;-1.740;2022-09-03T11:33:44;25.20;90.60
30694;DHT22;17446;48.022;-1.740;2022-09-03T11:36:10;25.10;90.50
30694;DHT22;17446;48.022;-1.740;2022-09-03T11:38:36;25.20;90.40
30694;DHT22;17446;48.022;-1.740;2022-09-03T11:41:10;25.20;90.50
30694;DHT22;17446;48.022;-1.740;2022-09-03T11:43:37;25.30;90.20
30694;DHT22;17446;48.022;-1.740;2022-09-03T11:48:51;25.40;89.70
30694;DHT22;17446;48.022;-1.740;2022-09-03T11:51:20;25.30;89.20
30694;DHT22;17446;48.022;-1.740;2022-09-03T11:53:55;25.40;88.90
30694;DHT22;17446;48.022;-1.740;2022-09-03T11:56:21;25.30;89.40
30694;DHT22;17446;48.022;-1.740;2022-09-03T11:58:56;25.50;90.30
30694;DHT22;17446;48.022;-1.740;2022-09-03T12:01:24;25.60;89.70
30694;DHT22;17446;48.022;-1.740;2022-09-03T12:08:56;25.60;87.70
30694;DHT22;17446;48.022;-1.740;2022-09-03T12:16:27;25.80;86.30
30694;DHT22;17446;48.022;-1.740;2022-09-03T12:18:59;25.90;85.10
30694;DHT22;17446;48.022;-1.740;2022-09-03T12:21:25;25.90;85.10
30694;DHT22;17446;48.022;-1.740;2022-09-03T12:23:51;25.90;84.20
30694;DHT22;17446;48.022;-1.740;2022-09-03T12:26:19;25.90;82.80
30694;DHT22;17446;48.022;-1.740;2022-09-03T12:28:46;25.90;81.00
30694;DHT22;17446;48.022;-1.740;2022-09-03T12:33:48;26.10;80.10
30694;DHT22;17446;48.022;-1.740;2022-09-03T12:36:15;26.00;79.00
30694;DHT22;17446;48.022;-1.740;2022-09-03T12:38:41;26.10;79.10
30694;DHT22;17446;48.022;-1.740;2022-09-03T12:41:29;26.10;79.40
30694;DHT22;17446;48.022;-1.740;2022-09-03T12:43:54;26.10;77.90
30694;DHT22;17446;48.022;-1.740;2022-09-03T12:46:27;26.00;76.70
30694;DHT22;17446;48.022;-1.740;2022-09-03T12:48:53;25.90;75.90
30694;DHT22;17446;48.022;-1.740;2022-09-03T12:51:18;26.00;76.40
30694;DHT22;17446;48.022;-1.740;2022-09-03T12:53:45;26.00;77.50
30694;DHT22;17446;48.022;-1.740;2022-09-03T12:56:11;26.10;76.00
30694;DHT22;17446;48.022;-1.740;2022-09-03T13:01:16;26.10;76.00
30694;DHT22;17446;48.022;-1.740;2022-09-03T13:06:11;26.10;75.80
30694;DHT22;17446;48.022;-1.740;2022-09-03T13:08:40;26.10;76.40
30694;DHT22;17446;48.022;-1.740;2022-09-03T13:11:08;26.10;75.80
30694;DHT22;17446;48.022;-1.740;2022-09-03T13:13:34;26.10;76.50
30694;DHT22;17446;48.022;-1.740;2022-09-03T13:18:43;26.40;75.40
30694;DHT22;17446;48.022;-1.740;2022-09-03T13:31:54;26.20;75.10
30694;DHT22;17446;48.022;-1.740;2022-09-03T13:34:24;26.20;75.00
30694;DHT22;17446;48.022;-1.740;2022-09-03T13:36:56;26.10;74.00
30694;DHT22;17446;48.022;-1.740;2022-09-03T13:39:27;25.90;74.40
30694;DHT22;17446;48.022;-1.740;2022-09-03T13:42:02;25.80;76.10
30694;DHT22;17446;48.022;-1.740;2022-09-03T13:47:06;25.70;77.00
30694;DHT22;17446;48.022;-1.740;2022-09-03T14:00:49;26.30;73.70
30694;DHT22;17446;48.022;-1.740;2022-09-03T14:16:05;26.20;70.50
30694;DHT22;17446;48.022;-1.740;2022-09-03T14:18:38;26.20;70.30
30694;DHT22;17446;48.022;-1.740;2022-09-03T14:21:12;26.10;70.10
30694;DHT22;17446;48.022;-1.740;2022-09-03T14:23:42;26.10;70.60
30694;DHT22;17446;48.022;-1.740;2022-09-03T14:26:27;26.10;70.50
30694;DHT22;17446;48.022;-1.740;2022-09-03T14:28:57;26.20;71.60
30694;DHT22;17446;48.022;-1.740;2022-09-03T14:34:10;26.30;71.30
30694;DHT22;17446;48.022;-1.740;2022-09-03T14:49:44;26.20;69.90
30694;DHT22;17446;48.022;-1.740;2022-09-03T14:55:01;26.40;68.40
30694;DHT22;17446;48.022;-1.740;2022-09-03T14:57:35;26.40;68.70
30694;DHT22;17446;48.022;-1.740;2022-09-03T15:05:09;26.20;69.20
30694;DHT22;17446;48.022;-1.740;2022-09-03T15:10:47;26.40;69.00
30694;DHT22;17446;48.022;-1.740;2022-09-03T15:12:57;26.60;69.60
30694;DHT22;17446;48.022;-1.740;2022-09-03T15:15:26;26.70;67.70
30694;DHT22;17446;48.022;-1.740;2022-09-03T15:20:44;26.50;67.90
30694;DHT22;17446;48.022;-1.740;2022-09-03T15:28:24;26.40;70.00
30694;DHT22;17446;48.022;-1.740;2022-09-03T15:31:10;26.50;70.90
30694;DHT22;17446;48.022;-1.740;2022-09-03T15:33:50;26.60;69.10
30694;DHT22;17446;48.022;-1.740;2022-09-03T15:39:01;26.40;69.30
30694;DHT22;17446;48.022;-1.740;2022-09-03T15:43:56;26.40;70.70
30694;DHT22;17446;48.022;-1.740;2022-09-03T15:46:33;26.50;69.10
30694;DHT22;17446;48.022;-1.740;2022-09-03T15:51:31;26.70;69.80
30694;DHT22;17446;48.022;-1.740;2022-09-03T15:53:59;26.80;69.00
30694;DHT22;17446;48.022;-1.740;2022-09-03T15:56:38;26.80;68.10
30694;DHT22;17446;48.022;-1.740;2022-09-03T16:01:43;27.00;68.40
30694;DHT22;17446;48.022;-1.740;2022-09-03T16:06:45;27.00;68.10
30694;DHT22;17446;48.022;-1.740;2022-09-03T16:09:17;26.90;68.50
30694;DHT22;17446;48.022;-1.740;2022-09-03T16:11:49;26.80;69.00
30694;DHT22;17446;48.022;-1.740;2022-09-03T16:14:17;26.70;69.90
30694;DHT22;17446;48.022;-1.740;2022-09-03T16:17:02;26.70;69.20
30694;DHT22;17446;48.022;-1.740;2022-09-03T16:19:34;26.60;69.00
30694;DHT22;17446;48.022;-1.740;2022-09-03T16:22:03;26.60;69.40
30694;DHT22;17446;48.022;-1.740;2022-09-03T16:27:13;27.00;69.40
30694;DHT22;17446;48.022;-1.740;2022-09-03T16:29:40;27.20;70.10
30694;DHT22;17446;48.022;-1.740;2022-09-03T16:40:09;27.70;68.00
30694;DHT22;17446;48.022;-1.740;2022-09-03T16:42:44;27.70;68.00
30694;DHT22;17446;48.022;-1.740;2022-09-03T16:50:25;27.60;68.30
30694;DHT22;17446;48.022;-1.740;2022-09-03T16:55:46;27.60;68.50
30694;DHT22;17446;48.022;-1.740;2022-09-03T17:00:48;27.10;69.00
30694;DHT22;17446;48.022;-1.740;2022-09-03T17:04:04;26.90;69.90
30694;DHT22;17446;48.022;-1.740;2022-09-03T17:26:20;24.30;77.90
30694;DHT22;17446;48.022;-1.740;2022-09-03T17:33:45;23.90;80.60
30694;DHT22;17446;48.022;-1.740;2022-09-03T17:36:17;23.80;81.30
30694;DHT22;17446;48.022;-1.740;2022-09-03T17:39:07;23.80;82.00
30694;DHT22;17446;48.022;-1.740;2022-09-03T17:41:45;23.70;81.80
30694;DHT22;17446;48.022;-1.740;2022-09-03T17:46:59;23.60;83.10
30694;DHT22;17446;48.022;-1.740;2022-09-03T17:49:26;23.50;83.70
30694;DHT22;17446;48.022;-1.740;2022-09-03T17:59:31;23.50;84.70
30694;DHT22;17446;48.022;-1.740;2022-09-03T18:02:01;23.50;84.50
30694;DHT22;17446;48.022;-1.740;2022-09-03T18:07:28;23.30;83.90
30694;DHT22;17446;48.022;-1.740;2022-09-03T18:12:27;23.10;84.60
30694;DHT22;17446;48.022;-1.740;2022-09-03T18:15:05;23.00;85.00
30694;DHT22;17446;48.022;-1.740;2022-09-03T18:17:45;22.80;85.50
30694;DHT22;17446;48.022;-1.740;2022-09-03T18:20:15;22.70;85.60
30694;DHT22;17446;48.022;-1.740;2022-09-03T18:23:19;22.60;86.00
30694;DHT22;17446;48.022;-1.740;2022-09-03T18:26:05;22.50;86.50
30694;DHT22;17446;48.022;-1.740;2022-09-03T18:29:00;22.40;87.10
30694;DHT22;17446;48.022;-1.740;2022-09-03T18:31:45;22.30;87.70
30694;DHT22;17446;48.022;-1.740;2022-09-03T18:34:31;22.10;88.10
30694;DHT22;17446;48.022;-1.740;2022-09-03T18:37:19;22.00;88.30
30694;DHT22;17446;48.022;-1.740;2022-09-03T18:40:04;21.90;88.80
30694;DHT22;17446;48.022;-1.740;2022-09-03T18:52:01;21.70;90.20
30694;DHT22;17446;48.022;-1.740;2022-09-03T19:00:51;21.50;90.60
30694;DHT22;17446;48.022;-1.740;2022-09-03T19:03:43;21.50;91.00
30694;DHT22;17446;48.022;-1.740;2022-09-03T19:12:55;21.30;91.40
30694;DHT22;17446;48.022;-1.740;2022-09-03T19:16:07;21.20;91.70
30694;DHT22;17446;48.022;-1.740;2022-09-03T19:21:57;21.10;92.00
30694;DHT22;17446;48.022;-1.740;2022-09-03T19:24:42;21.10;92.10
30694;DHT22;17446;48.022;-1.740;2022-09-03T19:30:20;21.00;92.50
30694;DHT22;17446;48.022;-1.740;2022-09-03T19:33:12;20.90;92.60
30694;DHT22;17446;48.022;-1.740;2022-09-03T19:41:37;20.80;93.10
30694;DHT22;17446;48.022;-1.740;2022-09-03T19:44:28;20.70;93.20
30694;DHT22;17446;48.022;-1.740;2022-09-03T19:47:24;20.70;93.40
30694;DHT22;17446;48.022;-1.740;2022-09-03T19:50:19;20.60;93.50
30694;DHT22;17446;48.022;-1.740;2022-09-03T19:53:05;20.50;93.70
30694;DHT22;17446;48.022;-1.740;2022-09-03T19:55:55;20.50;93.90
30694;DHT22;17446;48.022;-1.740;2022-09-03T19:58:45;20.40;93.90
30694;DHT22;17446;48.022;-1.740;2022-09-03T20:01:32;20.30;94.10
30694;DHT22;17446;48.022;-1.740;2022-09-03T20:04:17;20.30;94.30
30694;DHT22;17446;48.022;-1.740;2022-09-03T20:07:03;20.20;94.50
30694;DHT22;17446;48.022;-1.740;2022-09-03T20:09:49;20.20;94.50
30694;DHT22;17446;48.022;-1.740;2022-09-03T20:12:42;20.10;94.70
30694;DHT22;17446;48.022;-1.740;2022-09-03T20:15:09;20.10;94.90
30694;DHT22;17446;48.022;-1.740;2022-09-03T20:25:53;19.90;95.40
30694;DHT22;17446;48.022;-1.740;2022-09-03T20:28:34;19.90;95.50
30694;DHT22;17446;48.022;-1.740;2022-09-03T20:41:53;19.70;96.00
30694;DHT22;17446;48.022;-1.740;2022-09-03T20:47:22;19.60;96.20
30694;DHT22;17446;48.022;-1.740;2022-09-03T20:49:52;19.60;96.30
30694;DHT22;17446;48.022;-1.740;2022-09-03T21:00:22;19.40;96.70
30694;DHT22;17446;48.022;-1.740;2022-09-03T21:05:33;19.40;96.90
30694;DHT22;17446;48.022;-1.740;2022-09-03T21:08:05;19.40;97.00
30694;DHT22;17446;48.022;-1.740;2022-09-03T21:16:11;19.30;97.30
30694;DHT22;17446;48.022;-1.740;2022-09-03T21:23:58;19.20;97.60
30694;DHT22;17446;48.022;-1.740;2022-09-03T21:26:25;19.20;97.70
30694;DHT22;17446;48.022;-1.740;2022-09-03T21:31:32;19.10;97.90
30694;DHT22;17446;48.022;-1.740;2022-09-03T21:34:10;19.10;98.00